createdAt,value
2022-09-06T00:01:08.899Z,7.43
2022-09-06T00:03:35.828Z,8.17
2022-09-06T00:06:07.717Z,8.05
2022-09-06T00:08:34.426Z,7.65
2022-09-06T00:11:01.569Z,7.47
2022-09-06T00:13:28.552Z,7.47
2022-09-06T00:15:55.422Z,8.13
2022-09-06T00:18:22.556Z,8.60
2022-09-06T00:20:49.357Z,8.55
2022-09-06T00:23:16.109Z,7.60
2022-09-06T00:25:42.810Z,8.48
2022-09-06T00:28:09.528Z,8.63
2022-09-06T00:30:37.136Z,8.65
2022-09-06T00:33:03.912Z,8.52
2022-09-06T00:35:30.641Z,8.95
2022-09-06T00:37:59.225Z,8.73
2022-09-06T00:40:27.470Z,9.07
2022-09-06T00:42:54.117Z,11.05
2022-09-06T00:45:21.465Z,10.75
2022-09-06T00:47:48.875Z,9.60
2022-09-06T00:50:18.516Z,9.23
2022-09-06T00:52:47.335Z,9.60
2022-09-06T00:55:14.493Z,9.52
2022-09-06T00:57:41.989Z,9.40
2022-09-06T01:00:10.007Z,9.63
2022-09-06T01:02:37.116Z,9.25
2022-09-06T01:05:05.592Z,9.40
2022-09-06T01:07:51.578Z,10.00
2022-09-06T01:10:39.612Z,10.18
2022-09-06T01:13:31.139Z,9.93
2022-09-06T01:16:11.299Z,9.93
2022-09-06T01:18:50.392Z,10.27
2022-09-06T01:21:23.456Z,9.55
2022-09-06T01:24:30.885Z,9.40
2022-09-06T01:27:25.509Z,9.27
2022-09-06T01:29:54.073Z,11.18
2022-09-06T01:32:30.318Z,11.03
2022-09-06T01:35:05.696Z,10.38
2022-09-06T01:37:33.223Z,9.70
2022-09-06T01:40:00.047Z,9.00
2022-09-06T01:42:31.014Z,9.40
2022-09-06T01:45:02.042Z,9.03
2022-09-06T01:48:13.200Z,8.68
2022-09-06T01:50:49.122Z,9.05
2022-09-06T01:53:46.500Z,8.90
2022-09-06T01:56:24.406Z,9.18
2022-09-06T01:59:22.297Z,9.30
2022-09-06T02:02:14.940Z,8.32
2022-09-06T02:04:57.425Z,9.30
2022-09-06T02:07:28.198Z,8.48
2022-09-06T02:10:03.248Z,8.70
2022-09-06T02:12:32.728Z,8.53
2022-09-06T02:15:15.911Z,8.15
2022-09-06T02:18:00.883Z,8.38
2022-09-06T02:20:31.617Z,8.07
2022-09-06T02:23:04.001Z,8.65
2022-09-06T02:25:38.117Z,8.47
2022-09-06T02:28:07.454Z,8.85
2022-09-06T02:30:40.032Z,9.23
2022-09-06T02:33:16.741Z,9.40
2022-09-06T02:35:46.098Z,9.07
2022-09-06T02:38:13.585Z,9.23
2022-09-06T02:40:40.793Z,8.80
2022-09-06T02:43:07.737Z,9.60
2022-09-06T02:45:34.669Z,9.75
2022-09-06T02:48:01.541Z,9.90
2022-09-06T02:50:28.348Z,9.50
2022-09-06T02:53:06.554Z,9.30
2022-09-06T02:55:33.541Z,10.35
2022-09-06T02:58:00.276Z,10.45
2022-09-06T03:00:27.965Z,9.43
2022-09-06T03:02:55.885Z,9.67
2022-09-06T03:05:24.057Z,8.73
2022-09-06T03:07:51.256Z,9.38
2022-09-06T03:10:17.939Z,8.60
2022-09-06T03:12:45.265Z,8.93
2022-09-06T03:15:14.085Z,8.93
2022-09-06T03:17:41.293Z,8.80
2022-09-06T03:20:10.139Z,8.52
2022-09-06T03:22:37.594Z,8.80
2022-09-06T03:25:04.536Z,8.73
2022-09-06T03:27:31.292Z,9.03
2022-09-06T03:29:58.260Z,8.43
2022-09-06T03:32:24.942Z,8.75
2022-09-06T03:34:51.950Z,8.98
2022-09-06T03:37:19.515Z,9.48
2022-09-06T03:39:46.243Z,9.00
2022-09-06T03:42:12.993Z,8.88
2022-09-06T03:44:39.712Z,9.00
2022-09-06T03:47:06.417Z,8.80
2022-09-06T03:49:33.121Z,8.82
2022-09-06T03:51:59.731Z,8.93
2022-09-06T03:54:28.471Z,8.63
2022-09-06T03:56:55.761Z,8.80
2022-09-06T03:59:22.408Z,9.60
2022-09-06T04:01:49.047Z,10.43
2022-09-06T04:04:15.700Z,9.90
2022-09-06T04:06:42.399Z,9.60
2022-09-06T04:09:09.087Z,10.35
2022-09-06T04:11:35.801Z,9.80
2022-09-06T04:14:02.517Z,9.32
2022-09-06T04:16:29.510Z,9.57
2022-09-06T04:18:56.328Z,9.40
2022-09-06T04:21:23.017Z,9.68
2022-09-06T04:23:49.739Z,9.13
2022-09-06T04:26:16.483Z,8.90
2022-09-06T04:28:43.294Z,9.90
2022-09-06T04:31:09.971Z,9.77
2022-09-06T04:33:38.657Z,9.50
2022-09-06T04:36:08.614Z,10.55
2022-09-06T04:38:38.042Z,9.65
2022-09-06T04:41:05.489Z,8.87
2022-09-06T04:43:32.908Z,9.52
2022-09-06T04:46:04.688Z,9.18
2022-09-06T04:48:31.464Z,9.75
2022-09-06T04:50:58.110Z,9.88
2022-09-06T04:53:24.811Z,9.73
2022-09-06T04:55:51.456Z,10.30
2022-09-06T04:58:18.141Z,10.35
2022-09-06T05:00:44.974Z,10.20
2022-09-06T05:03:11.710Z,10.50
2022-09-06T05:05:38.396Z,10.40
2022-09-06T05:08:05.089Z,10.55
2022-09-06T05:10:31.738Z,10.35
2022-09-06T05:12:58.414Z,10.65
2022-09-06T05:15:25.139Z,10.23
2022-09-06T05:17:51.871Z,10.40
2022-09-06T05:20:18.780Z,9.77
2022-09-06T05:22:53.150Z,10.15
2022-09-06T05:25:20.300Z,10.00
2022-09-06T05:27:47.092Z,10.52
2022-09-06T05:30:14.727Z,10.03
2022-09-06T05:32:41.369Z,10.10
2022-09-06T05:35:08.428Z,9.77
2022-09-06T05:37:35.174Z,9.70
2022-09-06T05:40:02.411Z,9.88
2022-09-06T05:42:29.173Z,9.83
2022-09-06T05:44:55.897Z,9.80
2022-09-06T05:47:22.579Z,10.40
2022-09-06T05:49:49.270Z,10.73
2022-09-06T05:52:17.456Z,11.02
2022-09-06T05:54:44.089Z,11.53
2022-09-06T05:57:10.754Z,10.40
2022-09-06T05:59:37.493Z,11.30
2022-09-06T06:02:07.350Z,11.07
2022-09-06T06:04:34.928Z,10.98
2022-09-06T06:07:01.914Z,10.80
2022-09-06T06:09:28.685Z,10.50
2022-09-06T06:11:55.421Z,11.38
2022-09-06T06:14:22.097Z,10.57
2022-09-06T06:16:48.830Z,10.73
2022-09-06T06:19:15.557Z,10.30
2022-09-06T06:21:43.673Z,10.00
2022-09-06T06:24:10.577Z,9.63
2022-09-06T06:26:37.817Z,9.68
2022-09-06T06:29:08.146Z,9.65
2022-09-06T06:31:36.027Z,10.00
2022-09-06T06:34:04.051Z,9.50
2022-09-06T06:36:35.696Z,9.65
2022-09-06T06:39:05.438Z,8.93
2022-09-06T06:41:32.898Z,9.07
2022-09-06T06:44:01.636Z,8.37
2022-09-06T06:46:31.539Z,8.80
2022-09-06T06:48:58.449Z,8.60
2022-09-06T06:51:28.321Z,8.25
2022-09-06T06:53:56.930Z,8.00
2022-09-06T06:56:35.752Z,7.83
2022-09-06T06:59:04.315Z,7.28
2022-09-06T07:01:32.472Z,6.50
2022-09-06T07:03:59.804Z,5.72
2022-09-06T07:09:18.567Z,6.70
2022-09-06T07:11:46.216Z,6.43
2022-09-06T07:14:12.890Z,6.40
2022-09-06T07:16:39.760Z,5.50
2022-09-06T07:19:06.713Z,6.25
2022-09-06T07:26:30.871Z,6.40
2022-09-06T07:29:00.317Z,6.20
2022-09-06T07:34:15.278Z,6.30
2022-09-06T07:36:41.980Z,6.85
2022-09-06T07:39:08.664Z,5.60
2022-09-06T07:41:35.370Z,5.13
2022-09-06T07:44:02.200Z,5.72
2022-09-06T07:46:28.961Z,5.90
2022-09-06T07:48:55.640Z,5.63
2022-09-06T07:51:22.725Z,5.68
2022-09-06T07:54:07.485Z,5.13
2022-09-06T07:56:42.078Z,5.13
2022-09-06T07:59:09.305Z,5.40
2022-09-06T08:01:38.053Z,5.45
2022-09-06T08:04:08.769Z,5.43
2022-09-06T08:09:25.107Z,5.75
2022-09-06T08:11:52.704Z,5.70
2022-09-06T08:14:20.279Z,5.53
2022-09-06T08:16:47.268Z,5.72
2022-09-06T08:19:14.385Z,5.47
2022-09-06T08:21:41.178Z,5.03
2022-09-06T08:24:12.405Z,5.23
2022-09-06T08:26:45.426Z,5.10
2022-09-06T08:29:12.992Z,5.70
2022-09-06T08:31:42.289Z,5.30
2022-09-06T08:34:09.710Z,5.28
2022-09-06T08:36:36.399Z,5.23
2022-09-06T08:39:06.376Z,5.30
2022-09-06T08:41:42.284Z,5.32
2022-09-06T08:47:13.937Z,5.47
2022-09-06T08:49:44.943Z,5.73
2022-09-06T08:52:25.731Z,5.43
2022-09-06T08:55:07.512Z,5.80
2022-09-06T08:57:54.462Z,5.43
2022-09-06T09:00:21.350Z,5.35
2022-09-06T09:03:02.461Z,5.23
2022-09-06T09:05:37.564Z,5.20
2022-09-06T09:08:37.120Z,5.40
2022-09-06T09:11:07.423Z,5.15
2022-09-06T09:13:47.663Z,5.32
2022-09-06T09:16:15.077Z,5.30
2022-09-06T09:18:47.965Z,5.20
2022-09-06T09:21:18.254Z,4.95
2022-09-06T09:23:50.863Z,5.65
2022-09-06T09:26:17.860Z,5.82
2022-09-06T09:29:04.544Z,5.27
2022-09-06T09:31:36.631Z,5.78
2022-09-06T09:34:04.990Z,5.50
2022-09-06T09:36:33.219Z,5.50
2022-09-06T09:39:00.165Z,5.80
2022-09-06T09:41:36.541Z,6.00
2022-09-06T09:44:07.349Z,5.55
2022-09-06T09:46:35.858Z,5.70
2022-09-06T09:49:28.717Z,5.63
2022-09-06T09:52:11.882Z,6.30
2022-09-06T09:54:42.450Z,6.57
2022-09-06T09:57:17.677Z,6.20
2022-09-06T09:59:49.804Z,6.15
2022-09-06T10:02:31.117Z,5.90
2022-09-06T10:05:03.618Z,6.10
2022-09-06T10:07:32.772Z,5.30
2022-09-06T10:10:14.034Z,5.60
2022-09-06T10:12:42.760Z,5.35
2022-09-06T10:15:12.313Z,5.60
2022-09-06T10:17:50.227Z,6.22
2022-09-06T10:20:17.758Z,5.53
2022-09-06T10:23:02.338Z,5.55
2022-09-06T10:25:49.133Z,5.85
2022-09-06T10:28:36.980Z,6.43
2022-09-06T10:31:10.190Z,6.40
2022-09-06T10:33:48.689Z,7.07
2022-09-06T10:36:21.441Z,6.38
2022-09-06T10:38:59.305Z,6.90
2022-09-06T10:41:42.836Z,6.50
2022-09-06T10:44:30.985Z,5.93
2022-09-06T10:47:10.540Z,6.00
2022-09-06T10:49:39.032Z,6.50
2022-09-06T10:52:09.480Z,6.05
2022-09-06T10:54:41.008Z,5.88
2022-09-06T11:00:13.078Z,6.00
2022-09-06T11:05:53.229Z,6.20
2022-09-06T11:08:57.714Z,5.78
2022-09-06T11:11:40.398Z,5.88
2022-09-06T11:14:12.379Z,5.23
2022-09-06T11:16:48.920Z,4.93
2022-09-06T11:19:25.376Z,4.80
2022-09-06T11:22:22.576Z,4.47
2022-09-06T11:25:18.694Z,5.22
2022-09-06T11:27:51.182Z,4.33
2022-09-06T11:30:20.094Z,4.40
2022-09-06T11:32:50.436Z,4.20
2022-09-06T11:35:30.205Z,4.15
2022-09-06T11:38:08.341Z,4.13
2022-09-06T11:40:43.367Z,4.70
2022-09-06T11:43:18.821Z,4.72
2022-09-06T11:45:52.779Z,4.85
2022-09-06T11:48:34.014Z,5.15
2022-09-06T11:51:10.684Z,5.10
2022-09-06T11:53:49.684Z,5.30
2022-09-06T11:56:42.409Z,4.95
2022-09-06T11:59:24.030Z,5.45
2022-09-06T12:02:05.590Z,5.00
2022-09-06T12:05:00.964Z,5.13
2022-09-06T12:07:29.214Z,4.50
2022-09-06T12:09:56.135Z,4.97
2022-09-06T12:12:52.616Z,4.35
2022-09-06T12:15:31.210Z,4.50
2022-09-06T12:18:00.006Z,4.25
2022-09-06T12:20:48.307Z,4.40
2022-09-06T12:23:37.755Z,4.82
2022-09-06T12:26:06.260Z,4.65
2022-09-06T12:28:34.856Z,4.97
2022-09-06T12:31:19.980Z,5.00
2022-09-06T12:33:48.059Z,4.80
2022-09-06T12:36:19.441Z,5.00
2022-09-06T12:38:59.709Z,4.80
2022-09-06T12:41:29.898Z,5.03
2022-09-06T12:43:59.941Z,4.93
2022-09-06T12:46:30.167Z,4.67
2022-09-06T12:49:00.751Z,4.57
2022-09-06T12:51:27.551Z,4.50
2022-09-06T12:53:58.156Z,4.18
2022-09-06T12:56:27.580Z,4.43
2022-09-06T12:59:10.662Z,4.50
2022-09-06T13:01:39.128Z,3.78
2022-09-06T13:04:13.213Z,3.83
2022-09-06T13:06:43.306Z,3.80
2022-09-06T13:09:15.172Z,3.60
2022-09-06T13:11:48.835Z,3.17
2022-09-06T13:14:29.032Z,3.10
2022-09-06T13:16:59.960Z,3.30
2022-09-06T13:19:38.315Z,2.60
2022-09-06T13:22:11.135Z,2.75
2022-09-06T13:24:46.827Z,2.87
2022-09-06T13:27:24.216Z,2.92
2022-09-06T13:30:00.979Z,3.83
2022-09-06T13:32:28.637Z,3.88
2022-09-06T13:34:57.410Z,3.90
2022-09-06T13:37:31.333Z,3.87
2022-09-06T13:39:59.296Z,3.58
2022-09-06T13:42:39.350Z,3.70
2022-09-06T13:45:23.626Z,3.60
2022-09-06T13:47:50.343Z,3.92
2022-09-06T13:50:17.022Z,3.83
2022-09-06T13:52:43.831Z,3.47
2022-09-06T13:55:15.778Z,3.30
2022-09-06T13:57:42.432Z,3.75
2022-09-06T14:00:09.626Z,3.47
2022-09-06T14:02:37.227Z,3.73
2022-09-06T14:05:04.142Z,3.58
2022-09-06T14:07:30.777Z,3.55
2022-09-06T14:09:57.465Z,3.10
2022-09-06T14:12:24.134Z,3.30
2022-09-06T14:14:50.841Z,3.50
2022-09-06T14:17:17.566Z,3.13
2022-09-06T14:19:44.245Z,3.15
2022-09-06T14:22:10.999Z,3.10
2022-09-06T14:24:37.884Z,3.28
2022-09-06T14:27:07.292Z,3.07
2022-09-06T14:29:35.167Z,2.70
2022-09-06T14:32:02.123Z,2.80
2022-09-06T14:34:29.642Z,2.92
2022-09-06T14:36:56.318Z,2.90
2022-09-06T14:39:23.019Z,3.10
2022-09-06T14:41:50.504Z,2.90
2022-09-06T14:44:17.235Z,2.83
2022-09-06T14:46:44.010Z,3.00
2022-09-06T14:49:10.669Z,2.50
2022-09-06T14:51:38.560Z,2.50
2022-09-06T14:54:11.293Z,2.75
2022-09-06T14:56:40.495Z,2.63
2022-09-06T14:59:09.099Z,2.60
2022-09-06T15:01:38.614Z,2.80
2022-09-06T15:04:07.566Z,2.57
2022-09-06T15:06:36.804Z,2.75
2022-09-06T15:09:04.382Z,2.80
2022-09-06T15:11:31.067Z,3.40
2022-09-06T15:13:58.506Z,3.03
2022-09-06T15:16:25.480Z,3.03
2022-09-06T15:18:53.485Z,2.60
2022-09-06T15:21:20.852Z,2.83
2022-09-06T15:23:47.537Z,2.90
2022-09-06T15:26:15.415Z,3.15
2022-09-06T15:28:44.318Z,2.80
2022-09-06T15:31:13.088Z,2.88
2022-09-06T15:33:41.090Z,2.72
2022-09-06T15:36:10.200Z,2.90
2022-09-06T15:38:42.402Z,3.30
2022-09-06T15:41:11.517Z,2.83
2022-09-06T15:43:42.149Z,3.08
2022-09-06T15:46:09.914Z,2.90
2022-09-06T15:48:48.262Z,3.28
2022-09-06T15:51:17.484Z,3.10
2022-09-06T15:53:44.683Z,3.00
2022-09-06T15:56:14.608Z,2.90
2022-09-06T15:58:41.376Z,2.95
2022-09-06T16:01:14.139Z,3.00
2022-09-06T16:03:52.897Z,2.50
2022-09-06T16:06:28.096Z,2.50
2022-09-06T16:09:09.814Z,2.60
2022-09-06T16:11:37.232Z,2.80
2022-09-06T16:14:06.025Z,2.15
2022-09-06T16:16:34.492Z,2.53
2022-09-06T16:19:01.546Z,2.33
2022-09-06T16:21:32.137Z,2.20
2022-09-06T16:24:07.143Z,2.00
2022-09-06T16:26:37.364Z,2.10
2022-09-06T16:29:05.827Z,1.85
2022-09-06T16:31:40.084Z,2.00
2022-09-06T16:34:08.671Z,1.90
2022-09-06T16:36:35.644Z,2.47
2022-09-06T16:39:03.529Z,2.50
2022-09-06T16:41:36.581Z,2.50
2022-09-06T16:44:03.296Z,2.30
2022-09-06T16:46:30.107Z,2.30
2022-09-06T16:49:04.412Z,2.47
2022-09-06T16:51:31.814Z,2.80
2022-09-06T16:53:59.881Z,2.40
2022-09-06T16:56:28.639Z,2.30
2022-09-06T16:58:57.368Z,2.45
2022-09-06T17:01:26.282Z,2.60
2022-09-06T17:03:53.398Z,2.80
2022-09-06T17:06:21.472Z,2.72
2022-09-06T17:08:48.388Z,2.60
2022-09-06T17:11:20.640Z,2.65
2022-09-06T17:13:50.312Z,2.60
2022-09-06T17:16:36.299Z,2.67
2022-09-06T17:19:03.707Z,2.53
2022-09-06T17:21:31.285Z,2.40
2022-09-06T17:24:03.076Z,2.67
2022-09-06T17:26:31.054Z,2.80
2022-09-06T17:28:58.057Z,2.42
2022-09-06T17:31:26.211Z,2.58
2022-09-06T17:33:53.478Z,2.80
2022-09-06T17:36:23.657Z,2.35
2022-09-06T17:38:53.708Z,2.45
2022-09-06T17:41:25.610Z,2.30
2022-09-06T17:43:54.024Z,2.40
2022-09-06T17:46:25.205Z,2.40
2022-09-06T17:48:54.689Z,2.50
2022-09-06T17:51:21.419Z,2.70
2022-09-06T17:53:48.228Z,2.85
2022-09-06T17:56:16.921Z,2.75
2022-09-06T17:58:52.009Z,2.50
2022-09-06T18:01:18.877Z,2.80
2022-09-06T18:03:47.118Z,3.20
2022-09-06T18:06:16.745Z,2.40
2022-09-06T18:08:44.164Z,2.22
2022-09-06T18:11:14.991Z,2.50
2022-09-06T18:13:42.924Z,2.40
2022-09-06T18:16:10.693Z,2.60
2022-09-06T18:18:37.883Z,2.85
2022-09-06T18:21:06.965Z,2.55
2022-09-06T18:23:34.889Z,2.50
2022-09-06T18:26:04.852Z,2.42
2022-09-06T18:28:33.648Z,2.53
2022-09-06T18:31:03.825Z,2.45
2022-09-06T18:33:30.577Z,2.83
2022-09-06T18:35:57.308Z,2.97
2022-09-06T18:38:24.837Z,2.97
2022-09-06T18:40:57.422Z,2.88
2022-09-06T18:43:28.771Z,2.75
2022-09-06T18:46:03.874Z,3.17
2022-09-06T18:48:33.604Z,3.53
2022-09-06T18:51:05.249Z,3.10
2022-09-06T18:53:32.030Z,3.50
2022-09-06T18:55:59.389Z,3.13
2022-09-06T18:58:26.594Z,3.13
2022-09-06T19:00:54.060Z,3.30
2022-09-06T19:03:20.857Z,3.03
2022-09-06T19:05:47.532Z,3.00
2022-09-06T19:08:14.219Z,3.00
2022-09-06T19:10:40.993Z,2.85
2022-09-06T19:13:07.662Z,2.73
2022-09-06T19:15:34.329Z,3.15
2022-09-06T19:18:01.121Z,3.05
2022-09-06T19:20:27.883Z,3.10
2022-09-06T19:22:54.610Z,2.97
2022-09-06T19:25:21.316Z,3.10
2022-09-06T19:27:48.882Z,3.20
2022-09-06T19:30:15.893Z,3.30
2022-09-06T19:32:42.660Z,3.35
2022-09-06T19:35:09.625Z,3.20
2022-09-06T19:37:36.323Z,3.60
2022-09-06T19:40:03.527Z,3.33
2022-09-06T19:42:30.254Z,3.45
2022-09-06T19:44:57.281Z,3.08
2022-09-06T19:47:24.025Z,3.38
2022-09-06T19:49:50.747Z,2.90
2022-09-06T19:52:17.570Z,2.88
2022-09-06T19:54:44.305Z,3.50
2022-09-06T19:57:11.002Z,3.40
2022-09-06T19:59:39.885Z,3.30
2022-09-06T20:02:06.720Z,2.90
2022-09-06T20:04:33.523Z,3.15
2022-09-06T20:07:00.248Z,3.10
2022-09-06T20:09:26.967Z,3.00
2022-09-06T20:11:53.742Z,2.95
2022-09-06T20:14:20.792Z,3.20
2022-09-06T20:16:47.485Z,2.90
2022-09-06T20:19:15.174Z,3.08
2022-09-06T20:21:42.925Z,3.47
2022-09-06T20:24:09.654Z,3.70
2022-09-06T20:26:36.502Z,3.17
2022-09-06T20:29:04.902Z,4.85
2022-09-06T20:31:32.738Z,3.40
2022-09-06T20:34:01.925Z,3.03
2022-09-06T20:36:28.886Z,3.13
2022-09-06T20:38:56.054Z,3.97
2022-09-06T20:41:24.864Z,4.10
2022-09-06T20:43:56.793Z,4.93
2022-09-06T20:46:26.551Z,4.18
2022-09-06T20:48:56.361Z,3.92
2022-09-06T20:51:24.202Z,3.17
2022-09-06T20:53:55.278Z,3.40
2022-09-06T20:56:24.251Z,3.40
2022-09-06T20:59:01.140Z,3.15
2022-09-06T21:01:35.138Z,3.20
2022-09-06T21:04:04.402Z,3.10
2022-09-06T21:06:35.786Z,3.63
2022-09-06T21:09:04.582Z,4.00
2022-09-06T21:11:31.436Z,3.97
2022-09-06T21:13:58.167Z,3.72
2022-09-06T21:16:28.221Z,3.50
2022-09-06T21:18:57.450Z,3.85
2022-09-06T21:21:25.447Z,3.60
2022-09-06T21:23:52.852Z,4.10
2022-09-06T21:26:19.787Z,3.85
2022-09-06T21:28:47.909Z,3.87
2022-09-06T21:31:15.696Z,3.90
2022-09-06T21:33:48.549Z,4.20
2022-09-06T21:36:18.646Z,4.03
2022-09-06T21:38:47.428Z,4.32
2022-09-06T21:41:17.169Z,3.97
2022-09-06T21:43:45.183Z,4.57
2022-09-06T21:46:17.742Z,4.60
2022-09-06T21:48:49.934Z,4.95
2022-09-06T21:51:19.330Z,6.30
2022-09-06T21:53:48.220Z,6.00
2022-09-06T21:56:16.538Z,6.53
2022-09-06T21:58:44.577Z,6.53
2022-09-06T22:01:11.376Z,6.20
2022-09-06T22:03:41.605Z,6.25
2022-09-06T22:06:09.180Z,5.90
2022-09-06T22:08:36.176Z,5.78
2022-09-06T22:11:14.288Z,5.10
2022-09-06T22:13:41.230Z,5.93
2022-09-06T22:16:08.907Z,5.38
2022-09-06T22:18:36.328Z,5.60
2022-09-06T22:21:10.405Z,5.13
2022-09-06T22:23:39.117Z,4.50
2022-09-06T22:26:09.358Z,4.60
2022-09-06T22:28:36.637Z,4.50
2022-09-06T22:31:04.577Z,4.60
2022-09-06T22:33:31.551Z,4.60
2022-09-06T22:36:00.257Z,4.70
2022-09-06T22:38:30.653Z,4.45
2022-09-06T22:40:58.415Z,4.65
2022-09-06T22:43:25.737Z,4.87
2022-09-06T22:45:52.455Z,4.70
2022-09-06T22:48:19.299Z,5.00
2022-09-06T22:50:46.397Z,4.72
2022-09-06T22:53:13.105Z,4.32
2022-09-06T22:55:39.753Z,4.83
2022-09-06T22:58:06.637Z,4.63
2022-09-06T23:00:36.056Z,4.88
2022-09-06T23:03:03.099Z,4.72
2022-09-06T23:05:31.679Z,5.30
2022-09-06T23:08:01.535Z,5.40
2022-09-06T23:10:29.764Z,5.25
2022-09-06T23:12:56.916Z,4.90
2022-09-06T23:15:23.638Z,5.40
2022-09-06T23:17:50.500Z,4.80
2022-09-06T23:20:17.413Z,5.03
2022-09-06T23:22:44.082Z,4.88
2022-09-06T23:25:10.796Z,5.20
2022-09-06T23:27:37.489Z,5.40
2022-09-06T23:30:05.347Z,5.10
2022-09-06T23:32:33.145Z,6.00
2022-09-06T23:34:59.896Z,5.60
2022-09-06T23:37:26.721Z,5.35
2022-09-06T23:39:53.558Z,5.03
2022-09-06T23:42:21.957Z,5.05
2022-09-06T23:44:49.360Z,4.90
2022-09-06T23:47:16.047Z,4.93
2022-09-06T23:49:45.129Z,4.90
2022-09-06T23:52:11.813Z,4.60
2022-09-06T23:54:38.551Z,4.80
2022-09-06T23:57:05.269Z,4.97
2022-09-06T23:59:32.411Z,4.70
